createdAt,value
2023-04-30T00:00:22.560Z,8.50
2023-04-30T00:00:56.702Z,8.50
2023-04-30T00:01:31.524Z,8.50
2023-04-30T00:02:05.376Z,8.60
2023-04-30T00:02:39.632Z,8.60
2023-04-30T00:03:15.213Z,8.50
2023-04-30T00:03:49.574Z,8.50
2023-04-30T00:04:24.853Z,8.50
2023-04-30T00:05:01.173Z,8.50
2023-04-30T00:05:34.105Z,8.50
2023-04-30T00:06:07.573Z,8.50
2023-04-30T00:06:43.000Z,8.60
2023-04-30T00:07:16.964Z,8.50
2023-04-30T00:07:51.558Z,8.50
2023-04-30T00:08:27.904Z,8.50
2023-04-30T00:09:01.716Z,8.50
2023-04-30T00:09:35.858Z,8.50
2023-04-30T00:10:12.522Z,8.50
2023-04-30T00:10:46.408Z,8.50
2023-04-30T00:11:20.345Z,8.50
2023-04-30T00:11:54.220Z,8.50
2023-04-30T00:12:29.445Z,8.50
2023-04-30T00:13:03.837Z,8.50
2023-04-30T00:13:37.513Z,8.50
2023-04-30T00:14:11.561Z,8.50
2023-04-30T00:14:44.462Z,8.50
2023-04-30T00:15:19.602Z,8.50
2023-04-30T00:15:53.527Z,8.50
2023-04-30T00:16:26.296Z,8.50
2023-04-30T00:16:59.487Z,8.50
2023-04-30T00:17:34.179Z,8.50
2023-04-30T00:18:08.776Z,8.50
2023-04-30T00:18:41.935Z,8.50
2023-04-30T00:19:17.674Z,8.50
2023-04-30T00:19:52.033Z,8.50
2023-04-30T00:20:26.624Z,8.40
2023-04-30T00:21:01.442Z,8.50
2023-04-30T00:21:34.583Z,8.50
2023-04-30T00:22:08.104Z,8.50
2023-04-30T00:22:43.377Z,8.40
2023-04-30T00:23:17.402Z,8.40
2023-04-30T00:23:50.769Z,8.40
2023-04-30T00:24:27.154Z,8.40
2023-04-30T00:25:01.587Z,8.40
2023-04-30T00:25:35.687Z,8.40
2023-04-30T00:26:09.764Z,8.40
2023-04-30T00:26:44.546Z,8.40
2023-04-30T00:27:19.037Z,8.40
2023-04-30T00:27:52.272Z,8.40
2023-04-30T00:28:27.256Z,8.40
2023-04-30T00:29:01.204Z,8.40
2023-04-30T00:29:34.119Z,8.40
2023-04-30T00:30:10.664Z,8.40
2023-04-30T00:30:45.402Z,8.40
2023-04-30T00:31:18.782Z,8.40
2023-04-30T00:31:54.460Z,8.40
2023-04-30T00:32:28.911Z,8.40
2023-04-30T00:33:02.720Z,8.40
2023-04-30T00:33:37.888Z,8.40
2023-04-30T00:34:11.840Z,8.30
2023-04-30T00:34:46.107Z,8.40
2023-04-30T00:35:21.466Z,8.30
2023-04-30T00:35:56.473Z,8.30
2023-04-30T00:36:31.268Z,8.30
2023-04-30T00:37:05.114Z,8.30
2023-04-30T00:37:38.876Z,8.30
2023-04-30T00:38:13.442Z,8.30
2023-04-30T00:38:47.197Z,8.30
2023-04-30T00:39:20.293Z,8.30
2023-04-30T00:39:55.249Z,8.30
2023-04-30T00:40:28.277Z,8.30
2023-04-30T00:41:01.898Z,8.40
2023-04-30T00:41:37.847Z,8.40
2023-04-30T00:42:11.192Z,8.40
2023-04-30T00:42:44.950Z,8.30
2023-04-30T00:43:19.970Z,8.30
2023-04-30T00:43:53.009Z,8.40
2023-04-30T00:44:26.437Z,8.40
2023-04-30T00:45:01.429Z,8.40
2023-04-30T00:45:36.130Z,8.40
2023-04-30T00:46:11.751Z,8.40
2023-04-30T00:46:47.700Z,8.40
2023-04-30T00:47:21.207Z,8.40
2023-04-30T00:47:55.263Z,8.40
2023-04-30T00:48:30.230Z,8.40
2023-04-30T00:49:05.580Z,8.40
2023-04-30T00:49:39.902Z,8.40
2023-04-30T00:50:16.270Z,8.40
2023-04-30T00:50:50.095Z,8.40
2023-04-30T00:51:24.121Z,8.40
2023-04-30T00:51:58.470Z,8.40
2023-04-30T00:52:31.986Z,8.40
2023-04-30T00:53:05.080Z,8.40
2023-04-30T00:53:41.512Z,8.40
2023-04-30T00:54:15.386Z,8.40
2023-04-30T00:54:48.644Z,8.40
2023-04-30T00:55:23.047Z,8.40
2023-04-30T00:55:58.090Z,8.40
2023-04-30T00:56:32.455Z,8.40
2023-04-30T00:57:09.860Z,8.40
2023-04-30T00:57:44.269Z,8.40
2023-04-30T00:58:17.870Z,8.40
2023-04-30T00:58:57.140Z,8.40
2023-04-30T00:59:31.200Z,8.40
2023-04-30T01:00:06.364Z,8.30
2023-04-30T01:00:43.358Z,8.40
2023-04-30T01:01:18.666Z,8.30
2023-04-30T01:01:53.275Z,8.30
2023-04-30T01:02:28.267Z,8.30
2023-04-30T01:03:02.308Z,8.30
2023-04-30T01:03:37.021Z,8.30
2023-04-30T01:04:12.392Z,8.30
2023-04-30T01:04:47.462Z,8.30
2023-04-30T01:05:23.666Z,8.30
2023-04-30T01:05:59.012Z,8.30
2023-04-30T01:06:33.254Z,8.30
2023-04-30T01:07:07.031Z,8.30
2023-04-30T01:07:45.159Z,8.30
2023-04-30T01:08:19.320Z,8.30
2023-04-30T01:08:52.614Z,8.30
2023-04-30T01:09:28.112Z,8.30
2023-04-30T01:10:02.661Z,8.30
2023-04-30T01:10:42.695Z,8.30
2023-04-30T01:11:23.067Z,8.30
2023-04-30T01:12:02.116Z,8.30
2023-04-30T01:12:43.338Z,8.30
2023-04-30T01:13:27.331Z,8.30
2023-04-30T01:14:09.603Z,8.30
2023-04-30T01:15:28.557Z,8.20
2023-04-30T01:16:12.296Z,8.20
2023-04-30T01:16:54.126Z,8.20
2023-04-30T01:17:35.459Z,8.20
2023-04-30T01:18:25.249Z,8.20
2023-04-30T01:19:06.520Z,8.20
2023-04-30T01:19:45.098Z,8.20
2023-04-30T01:20:21.040Z,8.20
2023-04-30T01:21:00.508Z,8.20
2023-04-30T01:21:34.013Z,8.20
2023-04-30T01:22:12.114Z,8.10
2023-04-30T01:22:51.304Z,8.10
2023-04-30T01:23:39.274Z,8.20
2023-04-30T01:24:33.128Z,8.20
2023-04-30T01:25:34.481Z,8.10
2023-04-30T01:26:16.027Z,8.10
2023-04-30T01:27:04.614Z,8.10
2023-04-30T01:28:03.494Z,8.10
2023-04-30T01:28:39.168Z,8.10
2023-04-30T01:29:16.355Z,8.10
2023-04-30T01:29:52.016Z,8.10
2023-04-30T01:30:26.852Z,8.10
2023-04-30T01:31:01.667Z,8.10
2023-04-30T01:31:36.573Z,8.10
2023-04-30T01:32:12.077Z,8.00
2023-04-30T01:32:48.339Z,8.10
2023-04-30T01:33:22.268Z,8.10
2023-04-30T01:33:57.809Z,8.00
2023-04-30T01:34:33.471Z,8.10
2023-04-30T01:35:08.410Z,8.00
2023-04-30T01:36:00.147Z,8.10
2023-04-30T01:36:57.471Z,8.00
2023-04-30T01:37:41.769Z,8.00
2023-04-30T01:38:26.574Z,8.00
2023-04-30T01:39:35.567Z,8.00
2023-04-30T01:40:25.388Z,8.00
2023-04-30T01:41:02.933Z,8.00
2023-04-30T01:41:41.050Z,7.90
2023-04-30T01:42:21.913Z,7.90
2023-04-30T01:43:13.947Z,8.00
2023-04-30T01:43:57.444Z,8.00
2023-04-30T01:45:00.401Z,7.90
2023-04-30T01:45:46.945Z,7.90
2023-04-30T01:46:28.148Z,8.00
2023-04-30T01:47:09.251Z,7.90
2023-04-30T01:47:50.538Z,7.90
2023-04-30T01:48:34.450Z,7.90
2023-04-30T01:49:18.572Z,7.90
2023-04-30T01:50:07.687Z,7.90
2023-04-30T01:50:48.207Z,7.90
2023-04-30T01:51:31.955Z,7.90
2023-04-30T01:52:15.762Z,7.90
2023-04-30T01:52:53.379Z,7.90
2023-04-30T01:53:40.738Z,7.90
2023-04-30T01:54:24.933Z,7.90
2023-04-30T01:55:05.477Z,7.90
2023-04-30T01:55:42.421Z,7.90
2023-04-30T01:56:31.087Z,7.90
2023-04-30T01:57:07.679Z,7.90
2023-04-30T01:57:47.247Z,8.00
2023-04-30T01:58:27.370Z,7.90
2023-04-30T01:59:01.702Z,7.90
2023-04-30T01:59:37.618Z,7.90
2023-04-30T02:00:12.241Z,7.90
2023-04-30T02:00:50.146Z,7.90
2023-04-30T02:01:30.430Z,8.00
2023-04-30T02:02:03.427Z,8.00
2023-04-30T02:02:38.338Z,8.00
2023-04-30T02:03:12.248Z,7.90
2023-04-30T02:03:45.966Z,7.90
2023-04-30T02:04:20.877Z,7.90
2023-04-30T02:04:53.974Z,7.90
2023-04-30T02:05:28.162Z,7.90
2023-04-30T02:06:03.905Z,7.90
2023-04-30T02:06:37.246Z,7.90
2023-04-30T02:07:10.797Z,7.90
2023-04-30T02:07:48.650Z,7.90
2023-04-30T02:08:24.450Z,8.00
2023-04-30T02:09:03.448Z,8.00
2023-04-30T02:09:38.509Z,8.00
2023-04-30T02:10:13.537Z,7.90
2023-04-30T02:10:48.126Z,8.00
2023-04-30T02:11:24.738Z,8.00
2023-04-30T02:11:58.099Z,7.90
2023-04-30T02:12:31.572Z,7.90
2023-04-30T02:13:05.451Z,7.90
2023-04-30T02:13:41.001Z,7.90
2023-04-30T02:14:14.925Z,8.00
2023-04-30T02:15:11.700Z,7.90
2023-04-30T02:15:47.452Z,8.00
2023-04-30T02:16:21.238Z,8.00
2023-04-30T02:16:56.942Z,8.00
2023-04-30T02:17:30.727Z,8.00
2023-04-30T02:18:04.153Z,8.00
2023-04-30T02:18:39.957Z,8.00
2023-04-30T02:19:13.853Z,8.00
2023-04-30T02:19:47.030Z,8.00
2023-04-30T02:20:22.229Z,8.00
2023-04-30T02:20:56.664Z,8.00
2023-04-30T02:21:29.812Z,8.00
2023-04-30T02:22:04.378Z,8.00
2023-04-30T02:22:37.748Z,8.00
2023-04-30T02:23:11.322Z,8.00
2023-04-30T02:23:46.851Z,8.00
2023-04-30T02:24:21.236Z,8.00
2023-04-30T02:24:56.555Z,8.00
2023-04-30T02:25:33.169Z,8.00
2023-04-30T02:26:08.320Z,8.00
2023-04-30T02:26:42.614Z,8.00
2023-04-30T02:27:17.085Z,8.00
2023-04-30T02:27:51.661Z,8.00
2023-04-30T02:28:26.834Z,8.00
2023-04-30T02:29:01.985Z,8.00
2023-04-30T02:29:36.334Z,8.00
2023-04-30T02:30:10.370Z,8.00
2023-04-30T02:30:45.130Z,8.10
2023-04-30T02:31:19.599Z,8.00
2023-04-30T02:31:53.445Z,8.00
2023-04-30T02:32:27.437Z,8.10
2023-04-30T02:33:02.872Z,8.10
2023-04-30T02:33:37.354Z,8.10
2023-04-30T02:34:10.833Z,8.10
2023-04-30T02:34:45.376Z,8.10
2023-04-30T02:35:19.678Z,8.10
2023-04-30T02:35:53.100Z,8.10
2023-04-30T02:36:27.301Z,8.10
2023-04-30T02:37:03.992Z,8.10
2023-04-30T02:37:39.469Z,8.10
2023-04-30T02:38:14.100Z,8.20
2023-04-30T02:38:47.993Z,8.20
2023-04-30T02:39:22.489Z,8.20
2023-04-30T02:39:57.932Z,8.20
2023-04-30T02:40:32.142Z,8.20
2023-04-30T02:41:07.073Z,8.20
2023-04-30T02:41:40.512Z,8.20
2023-04-30T02:42:13.167Z,8.30
2023-04-30T02:42:47.383Z,8.30
2023-04-30T02:43:22.346Z,8.30
2023-04-30T02:43:58.951Z,8.30
2023-04-30T02:44:33.610Z,8.30
2023-04-30T02:45:09.570Z,8.30
2023-04-30T02:45:43.456Z,8.40
2023-04-30T02:46:17.287Z,8.40
2023-04-30T02:46:51.364Z,8.40
2023-04-30T02:47:26.372Z,8.40
2023-04-30T02:48:01.483Z,8.40
2023-04-30T02:48:35.288Z,8.40
2023-04-30T02:49:09.505Z,8.50
2023-04-30T02:49:44.596Z,8.50
2023-04-30T02:50:18.799Z,8.50
2023-04-30T02:50:52.779Z,8.50
2023-04-30T02:51:27.166Z,8.50
2023-04-30T02:51:59.604Z,8.50
2023-04-30T02:52:35.046Z,8.50
2023-04-30T02:53:08.092Z,8.60
2023-04-30T02:53:41.461Z,8.60
2023-04-30T02:54:15.238Z,8.60
2023-04-30T02:54:49.556Z,8.60
2023-04-30T02:55:23.521Z,8.60
2023-04-30T02:55:59.822Z,8.60
2023-04-30T02:56:33.672Z,8.60
2023-04-30T02:57:08.593Z,8.60
2023-04-30T02:57:44.158Z,8.60
2023-04-30T02:58:19.125Z,8.70
2023-04-30T02:58:54.368Z,8.70
2023-04-30T02:59:29.591Z,8.70
2023-04-30T03:00:05.643Z,8.70
2023-04-30T03:00:39.232Z,8.80
2023-04-30T03:01:14.421Z,8.80
2023-04-30T03:01:47.427Z,8.80
2023-04-30T03:02:22.147Z,8.80
2023-04-30T03:02:57.262Z,8.90
2023-04-30T03:03:30.438Z,8.90
2023-04-30T03:04:03.943Z,9.00
2023-04-30T03:04:39.705Z,9.00
2023-04-30T03:05:15.818Z,9.10
2023-04-30T03:05:50.023Z,9.10
2023-04-30T03:06:25.786Z,9.20
2023-04-30T03:07:00.635Z,9.30
2023-04-30T03:07:33.936Z,9.40
2023-04-30T03:08:10.176Z,9.40
2023-04-30T03:08:43.929Z,9.50
2023-04-30T03:09:18.115Z,9.60
2023-04-30T03:09:54.680Z,9.70
2023-04-30T03:10:27.515Z,9.70
2023-04-30T03:11:02.196Z,9.80
2023-04-30T03:11:37.830Z,9.90
2023-04-30T03:12:11.957Z,9.90
2023-04-30T03:12:46.113Z,10.00
2023-04-30T03:13:21.578Z,10.10
2023-04-30T03:13:54.995Z,10.20
2023-04-30T03:14:27.448Z,10.20
2023-04-30T03:15:01.587Z,10.30
2023-04-30T03:15:38.697Z,10.40
2023-04-30T03:16:14.287Z,10.50
2023-04-30T03:16:48.455Z,10.50
2023-04-30T03:17:24.353Z,10.50
2023-04-30T03:17:58.663Z,10.60
2023-04-30T03:18:32.292Z,10.60
2023-04-30T03:19:05.757Z,10.60
2023-04-30T03:19:41.056Z,10.70
2023-04-30T03:20:15.430Z,10.70
2023-04-30T03:20:48.022Z,10.70
2023-04-30T03:21:23.777Z,10.70
2023-04-30T03:21:57.987Z,10.60
2023-04-30T03:22:32.308Z,10.60
2023-04-30T03:23:07.112Z,10.60
2023-04-30T03:23:39.987Z,10.60
2023-04-30T03:24:13.186Z,10.60
2023-04-30T03:24:47.614Z,10.60
2023-04-30T03:25:21.239Z,10.60
2023-04-30T03:25:54.673Z,10.60
2023-04-30T03:26:29.369Z,10.60
2023-04-30T03:27:02.704Z,10.70
2023-04-30T03:27:36.913Z,10.70
2023-04-30T03:28:11.003Z,10.70
2023-04-30T03:28:45.515Z,10.70
2023-04-30T03:29:19.634Z,10.80
2023-04-30T03:29:53.585Z,10.80
2023-04-30T03:30:27.227Z,10.80
2023-04-30T03:31:05.515Z,10.80
2023-04-30T03:31:40.188Z,10.80
2023-04-30T03:32:13.636Z,10.80
2023-04-30T03:32:47.755Z,10.80
2023-04-30T03:33:22.861Z,10.80
2023-04-30T03:33:58.457Z,10.80
2023-04-30T03:34:32.001Z,10.80
2023-04-30T03:35:09.333Z,10.70
2023-04-30T03:35:42.966Z,10.70
2023-04-30T03:36:18.013Z,10.80
2023-04-30T03:36:51.263Z,10.80
2023-04-30T03:37:24.817Z,10.80
2023-04-30T03:37:58.908Z,10.80
2023-04-30T03:38:32.377Z,10.80
2023-04-30T03:39:05.502Z,10.80
2023-04-30T03:39:40.830Z,10.80
2023-04-30T03:40:15.349Z,10.80
2023-04-30T03:40:49.466Z,10.90
2023-04-30T03:41:24.159Z,10.90
2023-04-30T03:41:57.852Z,11.00
2023-04-30T03:42:31.117Z,11.00
2023-04-30T03:43:05.522Z,11.00
2023-04-30T03:43:39.713Z,11.00
2023-04-30T03:44:16.438Z,11.10
2023-04-30T03:44:51.328Z,11.10
2023-04-30T03:45:26.046Z,11.10
2023-04-30T03:46:01.896Z,11.10
2023-04-30T03:46:36.821Z,11.10
2023-04-30T03:47:09.929Z,11.10
2023-04-30T03:47:43.652Z,11.10
2023-04-30T03:48:17.980Z,11.10
2023-04-30T03:48:52.119Z,11.10
2023-04-30T03:49:25.569Z,11.20
2023-04-30T03:49:59.729Z,11.20
2023-04-30T03:50:33.421Z,11.20
2023-04-30T03:51:07.192Z,11.10
2023-04-30T03:51:43.757Z,11.10
2023-04-30T03:52:17.702Z,11.20
2023-04-30T03:52:50.414Z,11.10
2023-04-30T03:53:27.420Z,11.10
2023-04-30T03:54:01.533Z,11.20
2023-04-30T03:54:35.171Z,11.10
2023-04-30T03:55:11.510Z,11.20
2023-04-30T03:55:45.137Z,11.10
2023-04-30T03:56:18.866Z,11.10
2023-04-30T03:56:52.815Z,11.10
2023-04-30T03:57:27.311Z,11.10
2023-04-30T03:58:01.032Z,11.20
2023-04-30T03:58:35.517Z,11.20
2023-04-30T03:59:08.447Z,11.20
2023-04-30T03:59:42.908Z,11.30
2023-04-30T04:00:19.450Z,11.30
2023-04-30T04:00:55.439Z,11.30
2023-04-30T04:01:30.082Z,11.40
2023-04-30T04:02:04.598Z,11.40
2023-04-30T04:02:38.234Z,11.40
2023-04-30T04:03:13.239Z,11.40
2023-04-30T04:03:49.401Z,11.50
2023-04-30T04:04:23.559Z,11.50
2023-04-30T04:04:58.703Z,11.60
2023-04-30T04:05:34.840Z,11.70
2023-04-30T04:06:08.112Z,11.90
2023-04-30T04:06:41.598Z,12.00
2023-04-30T04:07:16.042Z,12.10
2023-04-30T04:07:49.968Z,12.30
2023-04-30T04:08:25.649Z,12.40
2023-04-30T04:09:01.754Z,12.50
2023-04-30T04:09:35.997Z,12.60
2023-04-30T04:10:10.785Z,12.80
2023-04-30T04:10:46.726Z,13.00
2023-04-30T04:11:19.672Z,13.10
2023-04-30T04:11:52.873Z,13.20
2023-04-30T04:12:28.750Z,13.40
2023-04-30T04:13:02.604Z,13.40
2023-04-30T04:14:10.413Z,13.50
2023-04-30T04:15:18.913Z,13.60
2023-04-30T04:15:53.390Z,13.60
2023-04-30T04:16:27.929Z,13.60
2023-04-30T04:17:02.596Z,13.70
2023-04-30T04:17:37.380Z,13.70
2023-04-30T04:18:11.388Z,13.60
2023-04-30T04:18:45.626Z,13.50
2023-04-30T04:19:20.197Z,13.50
2023-04-30T04:19:53.649Z,13.50
2023-04-30T04:20:30.878Z,13.40
2023-04-30T04:21:05.188Z,13.30
2023-04-30T04:21:39.707Z,13.30
2023-04-30T04:22:21.664Z,13.30
2023-04-30T04:22:55.947Z,13.30
2023-04-30T04:23:30.114Z,13.20
2023-04-30T04:24:08.452Z,13.20
2023-04-30T04:24:42.821Z,13.20
2023-04-30T04:25:20.068Z,13.20
2023-04-30T04:25:54.757Z,13.10
2023-04-30T04:26:29.034Z,13.10
2023-04-30T04:27:03.810Z,13.10
2023-04-30T04:27:37.413Z,13.10
2023-04-30T04:28:11.657Z,13.10
2023-04-30T04:28:48.565Z,13.10
2023-04-30T04:29:22.551Z,13.10
2023-04-30T04:29:57.116Z,13.10
2023-04-30T04:30:32.398Z,13.20
2023-04-30T04:31:05.972Z,13.10
2023-04-30T04:31:42.352Z,13.20
2023-04-30T04:32:19.229Z,13.10
2023-04-30T04:32:54.562Z,13.20
2023-04-30T04:33:29.714Z,13.20
2023-04-30T04:34:06.095Z,13.20
2023-04-30T04:34:40.652Z,13.20
2023-04-30T04:35:15.633Z,13.20
2023-04-30T04:35:51.624Z,13.20
2023-04-30T04:36:30.347Z,13.20
2023-04-30T04:37:04.628Z,13.20
2023-04-30T04:37:40.815Z,13.20
2023-04-30T04:38:14.866Z,13.20
2023-04-30T04:38:50.329Z,13.10
2023-04-30T04:39:24.227Z,13.10
2023-04-30T04:39:57.973Z,13.10
2023-04-30T04:40:32.012Z,13.10
2023-04-30T04:41:07.348Z,13.10
2023-04-30T04:41:40.212Z,13.10
2023-04-30T04:42:17.696Z,13.10
2023-04-30T04:42:52.134Z,13.10
2023-04-30T04:43:26.867Z,13.10
2023-04-30T04:44:02.476Z,13.10
2023-04-30T04:44:36.597Z,13.20
2023-04-30T04:45:10.252Z,13.20
2023-04-30T04:45:46.035Z,13.20
2023-04-30T04:46:21.545Z,13.30
2023-04-30T04:46:57.413Z,13.30
2023-04-30T04:47:33.126Z,13.30
2023-04-30T04:48:07.134Z,13.40
2023-04-30T04:48:41.888Z,13.40
2023-04-30T04:49:16.670Z,13.50
2023-04-30T04:49:50.053Z,13.50
2023-04-30T04:50:23.850Z,13.60
2023-04-30T04:50:58.825Z,13.60
2023-04-30T04:51:33.705Z,13.70
2023-04-30T04:52:07.385Z,13.70
2023-04-30T04:52:41.821Z,13.70
2023-04-30T04:53:16.787Z,13.70
2023-04-30T04:53:50.289Z,13.80
2023-04-30T04:54:25.074Z,13.80
2023-04-30T04:54:58.811Z,13.90
2023-04-30T04:55:33.289Z,13.80
2023-04-30T04:56:09.676Z,13.80
2023-04-30T04:56:43.725Z,13.80
2023-04-30T04:57:18.876Z,13.80
2023-04-30T04:57:51.853Z,13.80
2023-04-30T04:58:27.626Z,13.70
2023-04-30T04:59:02.750Z,13.70
2023-04-30T04:59:36.837Z,13.60
2023-04-30T05:00:13.242Z,13.60
2023-04-30T05:00:47.705Z,13.50
2023-04-30T05:01:21.451Z,13.50
2023-04-30T05:01:54.912Z,13.50
2023-04-30T05:02:31.397Z,13.50
2023-04-30T05:03:04.827Z,13.50
2023-04-30T05:03:38.959Z,13.50
2023-04-30T05:04:14.721Z,13.40
2023-04-30T05:04:50.814Z,13.40
2023-04-30T05:05:24.705Z,13.40
2023-04-30T05:05:59.745Z,13.40
2023-04-30T05:06:32.730Z,13.40
2023-04-30T05:07:06.505Z,13.40
2023-04-30T05:07:41.079Z,13.40
2023-04-30T05:08:15.558Z,13.50
2023-04-30T05:08:49.035Z,13.50
2023-04-30T05:09:23.313Z,13.50
2023-04-30T05:09:57.829Z,13.60
2023-04-30T05:10:30.585Z,13.70
2023-04-30T05:11:05.296Z,13.70
2023-04-30T05:11:39.254Z,13.80
2023-04-30T05:12:12.733Z,13.90
2023-04-30T05:12:47.461Z,13.90
2023-04-30T05:13:20.721Z,14.00
2023-04-30T05:13:54.073Z,14.10
2023-04-30T05:14:29.261Z,14.20
2023-04-30T05:15:02.340Z,14.20
2023-04-30T05:15:37.147Z,14.20
2023-04-30T05:16:12.022Z,14.30
2023-04-30T05:16:47.290Z,14.30
2023-04-30T05:17:21.304Z,14.40
2023-04-30T05:17:58.562Z,14.40
2023-04-30T05:18:33.415Z,14.40
2023-04-30T05:19:06.534Z,14.40
2023-04-30T05:19:40.363Z,14.30
2023-04-30T05:20:14.806Z,14.30
2023-04-30T05:20:48.681Z,14.30
2023-04-30T05:21:23.848Z,14.30
2023-04-30T05:21:57.752Z,14.30
2023-04-30T05:22:31.668Z,14.20
2023-04-30T05:23:07.133Z,14.20
2023-04-30T05:23:40.808Z,14.20
2023-04-30T05:24:16.385Z,14.20
2023-04-30T05:24:53.676Z,14.20
2023-04-30T05:25:28.071Z,14.20
2023-04-30T05:26:02.007Z,14.20
2023-04-30T05:26:37.016Z,14.20
2023-04-30T05:27:11.929Z,14.10
2023-04-30T05:27:44.725Z,14.10
2023-04-30T05:28:18.677Z,14.10
2023-04-30T05:28:53.461Z,14.10
2023-04-30T05:29:28.000Z,14.10
2023-04-30T05:30:03.388Z,14.10
2023-04-30T05:30:39.405Z,14.20
2023-04-30T05:31:12.802Z,14.20
2023-04-30T05:31:47.128Z,14.20
2023-04-30T05:32:22.745Z,14.20
2023-04-30T05:32:58.838Z,14.30
2023-04-30T05:33:33.398Z,14.30
2023-04-30T05:34:08.542Z,14.30
2023-04-30T05:34:43.335Z,14.30
2023-04-30T05:35:17.121Z,14.30
2023-04-30T05:35:50.211Z,14.40
2023-04-30T05:36:24.465Z,14.40
2023-04-30T05:36:58.301Z,14.50
2023-04-30T05:37:31.479Z,14.50
2023-04-30T05:38:06.186Z,14.50
2023-04-30T05:38:41.132Z,14.50
2023-04-30T05:39:15.026Z,14.60
2023-04-30T05:39:49.922Z,14.60
2023-04-30T05:40:24.453Z,14.60
2023-04-30T05:40:58.268Z,14.60
2023-04-30T05:41:33.253Z,14.70
2023-04-30T05:42:07.091Z,14.70
2023-04-30T05:42:41.156Z,14.70
2023-04-30T05:43:16.016Z,14.70
2023-04-30T05:43:49.080Z,14.70
2023-04-30T05:44:23.732Z,14.80
2023-04-30T05:44:58.082Z,14.80
2023-04-30T05:45:31.639Z,14.80
2023-04-30T05:46:05.693Z,14.80
2023-04-30T05:46:41.180Z,14.90
2023-04-30T05:47:14.804Z,14.90
2023-04-30T05:47:47.630Z,14.90
2023-04-30T05:48:22.826Z,14.90
2023-04-30T05:48:57.477Z,15.00
2023-04-30T05:49:33.708Z,15.00
2023-04-30T05:50:11.046Z,15.00
2023-04-30T05:50:44.278Z,15.00
2023-04-30T05:51:20.678Z,15.00
2023-04-30T05:51:54.007Z,15.00
2023-04-30T05:52:28.305Z,15.00
2023-04-30T05:53:02.957Z,15.00
2023-04-30T05:53:36.756Z,15.00
2023-04-30T05:54:11.202Z,15.10
2023-04-30T05:54:47.312Z,15.10
2023-04-30T05:55:23.189Z,15.10
2023-04-30T05:55:57.908Z,15.10
2023-04-30T05:56:31.668Z,15.20
2023-04-30T05:57:06.129Z,15.20
2023-04-30T05:57:39.916Z,15.20
2023-04-30T05:58:13.802Z,15.20
2023-04-30T05:58:48.716Z,15.30
2023-04-30T05:59:22.235Z,15.30
2023-04-30T05:59:55.936Z,15.40
2023-04-30T06:00:31.331Z,15.40
2023-04-30T06:01:07.183Z,15.50
2023-04-30T06:01:42.319Z,15.50
2023-04-30T06:02:16.378Z,15.50
2023-04-30T06:02:51.343Z,15.50
2023-04-30T06:03:26.087Z,15.50
2023-04-30T06:04:01.445Z,15.50
2023-04-30T06:04:35.419Z,15.50
2023-04-30T06:05:09.652Z,15.50
2023-04-30T06:05:45.173Z,15.60
2023-04-30T06:06:19.676Z,15.60
2023-04-30T06:06:53.934Z,15.70
2023-04-30T06:07:28.255Z,15.70
2023-04-30T06:08:01.146Z,15.80
2023-04-30T06:08:35.176Z,15.80
2023-04-30T06:09:10.779Z,15.80
2023-04-30T06:09:44.162Z,15.80
2023-04-30T06:10:18.741Z,15.90
2023-04-30T06:10:53.937Z,15.90
2023-04-30T06:11:28.704Z,15.90
2023-04-30T06:12:04.069Z,15.90
2023-04-30T06:12:38.001Z,15.90
2023-04-30T06:13:11.909Z,15.90
2023-04-30T06:13:49.896Z,16.00
2023-04-30T06:14:22.988Z,16.00
2023-04-30T06:14:58.183Z,16.10
2023-04-30T06:15:32.817Z,16.10
2023-04-30T06:16:09.378Z,16.20
2023-04-30T06:16:43.143Z,16.30
2023-04-30T06:17:17.224Z,16.40
2023-04-30T06:17:51.143Z,16.50
2023-04-30T06:18:26.736Z,16.50
2023-04-30T06:19:00.658Z,16.60
2023-04-30T06:19:35.200Z,16.70
2023-04-30T06:20:10.390Z,16.70
2023-04-30T06:20:45.752Z,16.80
2023-04-30T06:21:20.946Z,16.80
2023-04-30T06:21:55.904Z,16.90
2023-04-30T06:22:30.848Z,16.90
2023-04-30T06:23:04.149Z,17.00
2023-04-30T06:23:40.128Z,17.00
2023-04-30T06:24:13.815Z,17.10
2023-04-30T06:24:48.058Z,17.10
2023-04-30T06:25:21.646Z,17.20
2023-04-30T06:25:56.340Z,17.20
2023-04-30T06:26:30.340Z,17.30
2023-04-30T06:27:03.504Z,17.40
2023-04-30T06:27:37.669Z,17.40
2023-04-30T06:28:11.713Z,17.50
2023-04-30T06:28:46.184Z,17.50
2023-04-30T06:29:21.837Z,17.60
2023-04-30T06:29:55.947Z,17.60
2023-04-30T06:30:32.227Z,17.60
2023-04-30T06:31:07.892Z,17.60
2023-04-30T06:31:43.567Z,17.60
2023-04-30T06:32:18.486Z,17.70
2023-04-30T06:32:53.649Z,17.60
2023-04-30T06:33:28.683Z,17.60
2023-04-30T06:34:03.769Z,17.60
2023-04-30T06:34:38.400Z,17.60
2023-04-30T06:35:13.561Z,17.60
2023-04-30T06:35:48.298Z,17.60
2023-04-30T06:36:22.301Z,17.60
2023-04-30T06:36:56.281Z,17.60
2023-04-30T06:37:35.983Z,17.60
2023-04-30T06:38:09.802Z,17.60
2023-04-30T06:38:43.967Z,17.60
2023-04-30T06:39:18.370Z,17.60
2023-04-30T06:39:53.441Z,17.70
2023-04-30T06:40:27.646Z,17.70
2023-04-30T06:41:02.382Z,17.80
2023-04-30T06:41:34.902Z,17.90
2023-04-30T06:42:15.631Z,18.00
2023-04-30T06:42:51.017Z,18.10
2023-04-30T06:43:25.598Z,18.20
2023-04-30T06:43:59.767Z,18.20
2023-04-30T06:44:35.632Z,18.30
2023-04-30T06:45:15.336Z,18.30
2023-04-30T06:45:50.736Z,18.40
2023-04-30T06:46:24.850Z,18.50
2023-04-30T06:46:57.531Z,18.60
2023-04-30T06:47:34.998Z,18.70
2023-04-30T06:48:09.024Z,18.80
2023-04-30T06:48:46.835Z,18.80
2023-04-30T06:49:20.441Z,18.90
2023-04-30T06:50:28.517Z,19.10
2023-04-30T06:51:01.946Z,19.10
2023-04-30T06:51:35.123Z,19.20
2023-04-30T06:52:09.644Z,19.30
2023-04-30T06:52:43.231Z,19.40
2023-04-30T06:53:17.639Z,19.40
2023-04-30T08:11:31.835Z,19.40
2023-04-30T08:12:08.099Z,15.10
2023-04-30T08:12:41.733Z,15.00
2023-04-30T08:13:15.830Z,14.90
2023-04-30T08:13:50.241Z,14.80
2023-04-30T08:14:23.900Z,14.80
2023-04-30T08:15:02.854Z,14.80
2023-04-30T08:15:38.487Z,14.80
2023-04-30T08:16:14.558Z,14.80
2023-04-30T08:16:47.879Z,14.80
2023-04-30T08:17:22.814Z,14.80
2023-04-30T08:17:57.476Z,14.80
2023-04-30T08:18:32.288Z,14.70
2023-04-30T08:19:07.777Z,14.70
2023-04-30T08:19:41.625Z,14.70
2023-04-30T08:20:18.477Z,14.70
2023-04-30T08:20:51.922Z,14.70
2023-04-30T08:21:24.986Z,14.70
2023-04-30T08:22:01.298Z,14.70
2023-04-30T08:22:35.777Z,14.70
2023-04-30T08:23:10.919Z,14.70
2023-04-30T08:23:44.948Z,14.70
2023-04-30T08:24:19.931Z,14.70
2023-04-30T08:24:53.614Z,14.70
2023-04-30T08:25:29.123Z,14.70
2023-04-30T08:26:03.611Z,14.70
2023-04-30T08:26:39.270Z,14.70
2023-04-30T08:27:12.636Z,14.70
2023-04-30T08:27:47.599Z,14.60
2023-04-30T08:28:21.211Z,14.60
2023-04-30T08:28:56.054Z,14.60
2023-04-30T08:29:30.519Z,14.60
2023-04-30T08:30:04.235Z,14.60
2023-04-30T08:30:38.838Z,14.70
2023-04-30T08:31:13.110Z,14.70
2023-04-30T08:31:47.975Z,14.70
2023-04-30T08:32:22.495Z,14.70
2023-04-30T08:32:58.196Z,14.70
2023-04-30T08:33:33.411Z,14.70
2023-04-30T08:34:09.191Z,14.70
2023-04-30T08:34:43.716Z,14.70
2023-04-30T08:35:19.373Z,14.70
2023-04-30T08:35:54.206Z,14.70
2023-04-30T08:36:27.795Z,14.70
2023-04-30T08:37:02.886Z,14.70
2023-04-30T08:37:36.732Z,14.70
2023-04-30T08:38:11.063Z,14.70
2023-04-30T08:38:46.108Z,14.70
2023-04-30T08:39:20.028Z,14.70
2023-04-30T08:39:56.743Z,14.60
2023-04-30T08:40:50.183Z,14.60
2023-04-30T08:41:29.077Z,14.60
2023-04-30T08:42:04.442Z,14.50
2023-04-30T08:42:43.351Z,14.50
2023-04-30T08:43:20.653Z,14.50
2023-04-30T08:43:55.310Z,14.50
2023-04-30T08:44:29.476Z,14.50
2023-04-30T08:45:05.114Z,14.50
2023-04-30T08:45:41.597Z,14.50
2023-04-30T08:46:17.179Z,14.50
2023-04-30T08:46:53.280Z,14.50
2023-04-30T08:47:28.997Z,14.50
2023-04-30T08:48:04.979Z,14.50
2023-04-30T08:48:39.104Z,14.40
2023-04-30T08:49:14.359Z,14.50
2023-04-30T08:49:48.090Z,14.50
2023-04-30T08:50:23.324Z,14.40
2023-04-30T08:50:57.574Z,14.50
2023-04-30T08:51:33.074Z,14.50
2023-04-30T08:52:08.432Z,14.50
2023-04-30T08:52:44.518Z,14.50
2023-04-30T08:53:22.201Z,14.50
2023-04-30T08:53:58.009Z,14.60
2023-04-30T08:54:31.997Z,14.60
2023-04-30T08:55:11.744Z,14.60
2023-04-30T08:55:46.003Z,14.60
2023-04-30T08:56:22.584Z,14.60
2023-04-30T08:56:58.026Z,14.70
2023-04-30T08:57:32.533Z,14.70
2023-04-30T08:58:07.004Z,14.70
2023-04-30T08:58:44.010Z,14.70
2023-04-30T08:59:18.188Z,14.70
2023-04-30T08:59:53.441Z,14.80
2023-04-30T09:00:28.383Z,14.80
2023-04-30T09:01:04.787Z,14.80
2023-04-30T09:01:38.251Z,14.80
2023-04-30T09:02:13.982Z,14.90